createdAt,value
2023-03-03T00:00:46.530Z,99403.72
2023-03-03T00:03:22.309Z,99403.16
2023-03-03T00:05:53.232Z,99403.16
2023-03-03T00:08:24.792Z,99403.97
2023-03-03T00:10:54.165Z,99414.44
2023-03-03T00:13:26.586Z,99416.09
2023-03-03T00:16:14.944Z,99428.75
2023-03-03T00:18:48.804Z,99427.84
2023-03-03T00:21:31.301Z,99428.28
2023-03-03T00:24:23.192Z,99441.34
2023-03-03T00:26:56.888Z,99446.53
2023-03-03T00:29:38.263Z,99453.25
2023-03-03T00:32:25.850Z,99448.59
2023-03-03T00:35:00.814Z,99459.41
2023-03-03T00:37:36.821Z,99464.25
2023-03-03T00:40:25.096Z,99470.22
2023-03-03T00:43:01.133Z,99469.66
2023-03-03T00:45:40.322Z,99481.00
2023-03-03T00:48:30.071Z,99493.44
2023-03-03T00:51:02.941Z,99482.09
2023-03-03T00:53:34.119Z,99479.94
2023-03-03T00:56:02.859Z,99477.84
2023-03-03T00:58:34.237Z,99482.75
2023-03-03T01:01:07.187Z,99492.75
2023-03-03T01:03:46.279Z,99494.72
2023-03-03T01:06:17.018Z,99495.47
2023-03-03T01:08:46.913Z,99488.44
2023-03-03T01:11:26.867Z,99513.78
2023-03-03T01:14:00.722Z,99502.88
2023-03-03T01:16:32.810Z,99493.53
2023-03-03T01:19:02.489Z,99495.78
2023-03-03T01:21:33.698Z,99505.41
2023-03-03T01:24:04.974Z,99513.38
2023-03-03T01:26:34.679Z,99513.53
2023-03-03T01:29:05.422Z,99524.56
2023-03-03T01:31:34.934Z,99530.31
2023-03-03T01:34:08.561Z,99549.50
2023-03-03T01:36:38.242Z,99541.78
2023-03-03T01:39:08.976Z,99553.41
2023-03-03T01:41:38.432Z,99566.31
2023-03-03T01:44:07.630Z,99566.78
2023-03-03T01:46:53.323Z,99559.72
2023-03-03T01:49:34.677Z,99565.13
2023-03-03T01:52:25.984Z,99570.56
2023-03-03T01:55:04.814Z,99581.56
2023-03-03T01:57:38.205Z,99577.72
2023-03-03T02:00:10.668Z,99573.25
2023-03-03T02:02:43.361Z,99586.34
2023-03-03T02:05:15.815Z,99590.56
2023-03-03T02:07:48.179Z,99588.69
2023-03-03T02:10:21.061Z,99605.09
2023-03-03T02:12:59.049Z,99611.41
2023-03-03T02:15:33.911Z,99603.09
2023-03-03T02:18:16.672Z,99600.22
2023-03-03T02:21:04.676Z,99600.66
2023-03-03T02:23:34.483Z,99597.50
2023-03-03T02:26:15.123Z,99590.19
2023-03-03T02:28:45.969Z,99600.75
2023-03-03T02:31:18.540Z,99610.41
2023-03-03T02:33:50.928Z,99618.25
2023-03-03T02:36:25.550Z,99605.78
2023-03-03T02:39:14.999Z,99606.25
2023-03-03T02:42:19.396Z,99613.31
2023-03-03T02:44:52.719Z,99609.06
2023-03-03T02:47:22.590Z,99616.31
2023-03-03T02:49:56.466Z,99612.31
2023-03-03T02:53:06.848Z,99604.28
2023-03-03T02:55:36.974Z,99609.84
2023-03-03T02:59:00.607Z,99605.03
2023-03-03T03:01:38.315Z,99605.47
2023-03-03T03:04:17.060Z,99619.19
2023-03-03T03:06:50.227Z,99622.19
2023-03-03T03:09:23.082Z,99630.94
2023-03-03T03:12:01.724Z,99639.19
2023-03-03T03:14:34.117Z,99638.34
2023-03-03T03:17:02.956Z,99628.09
2023-03-03T03:19:32.732Z,99632.31
2023-03-03T03:22:05.357Z,99630.66
2023-03-03T03:24:36.990Z,99622.53
2023-03-03T03:27:10.425Z,99625.06
2023-03-03T03:29:39.112Z,99619.38
2023-03-03T03:32:10.495Z,99622.38
2023-03-03T03:34:39.055Z,99626.25
2023-03-03T03:37:10.655Z,99630.81
2023-03-03T03:39:40.875Z,99628.59
2023-03-03T03:42:12.988Z,99617.19
2023-03-03T03:44:42.811Z,99628.66
2023-03-03T03:47:12.995Z,99626.63
2023-03-03T03:49:42.269Z,99622.53
2023-03-03T03:52:11.083Z,99635.59
2023-03-03T03:54:40.736Z,99650.91
2023-03-03T03:57:10.826Z,99639.31
2023-03-03T03:59:40.992Z,99645.31
2023-03-03T04:02:10.838Z,99647.34
2023-03-03T04:04:40.744Z,99638.09
2023-03-03T04:07:11.732Z,99645.13
2023-03-03T04:09:41.001Z,99653.97
2023-03-03T04:12:11.336Z,99649.19
2023-03-03T04:14:42.404Z,99663.38
2023-03-03T04:17:21.069Z,99649.91
2023-03-03T04:19:54.036Z,99642.53
2023-03-03T04:22:25.137Z,99642.91
2023-03-03T04:24:54.713Z,99650.28
2023-03-03T04:27:31.113Z,99655.00
2023-03-03T04:30:02.884Z,99656.84
2023-03-03T04:32:34.436Z,99670.81
2023-03-03T04:35:08.774Z,99688.59
2023-03-03T04:37:41.035Z,99691.13
2023-03-03T04:40:12.815Z,99696.72
2023-03-03T04:42:45.426Z,99684.97
2023-03-03T04:45:16.631Z,99687.19
2023-03-03T04:47:47.759Z,99696.16
2023-03-03T04:50:19.225Z,99692.88
2023-03-03T04:52:51.167Z,99686.34
2023-03-03T04:55:22.116Z,99696.69
2023-03-03T04:57:50.941Z,99710.19
2023-03-03T05:00:23.200Z,99729.72
2023-03-03T05:02:54.131Z,99739.63
2023-03-03T05:05:23.541Z,99741.00
2023-03-03T05:07:52.959Z,99737.31
2023-03-03T05:10:23.194Z,99738.81
2023-03-03T05:12:53.944Z,99739.41
2023-03-03T05:15:25.175Z,99743.16
2023-03-03T05:17:58.575Z,99740.28
2023-03-03T05:20:29.632Z,99732.03
2023-03-03T05:23:02.664Z,99737.97
2023-03-03T05:25:32.704Z,99737.00
2023-03-03T05:28:02.928Z,99735.97
2023-03-03T05:30:32.868Z,99739.47
2023-03-03T05:33:02.962Z,99741.13
2023-03-03T05:35:34.236Z,99730.41
2023-03-03T05:38:05.666Z,99730.63
2023-03-03T05:40:36.104Z,99745.88
2023-03-03T05:43:07.826Z,99751.44
2023-03-03T05:45:38.891Z,99750.19
2023-03-03T05:48:10.763Z,99758.69
2023-03-03T05:50:41.212Z,99750.00
2023-03-03T05:53:10.920Z,99748.78
2023-03-03T05:55:41.255Z,99761.56
2023-03-03T05:58:10.577Z,99777.19
2023-03-03T06:00:40.482Z,99775.19
2023-03-03T06:03:12.658Z,99781.78
2023-03-03T06:05:43.879Z,99798.72
2023-03-03T06:08:14.637Z,99801.59
2023-03-03T06:10:47.820Z,99820.38
2023-03-03T06:13:19.391Z,99824.72
2023-03-03T06:15:50.613Z,99818.53
2023-03-03T06:18:19.231Z,99825.53
2023-03-03T06:20:54.427Z,99831.72
2023-03-03T06:23:23.698Z,99828.16
2023-03-03T06:25:54.271Z,99837.09
2023-03-03T06:28:26.116Z,99844.88
2023-03-03T06:31:03.522Z,99841.22
2023-03-03T06:33:34.702Z,99847.56
2023-03-03T06:36:05.870Z,99853.41
2023-03-03T06:38:34.972Z,99853.97
2023-03-03T06:41:09.605Z,99860.16
2023-03-03T06:43:39.347Z,99860.97
2023-03-03T06:46:10.112Z,99859.75
2023-03-03T06:48:39.502Z,99859.13
2023-03-03T06:51:27.286Z,99861.44
2023-03-03T06:54:03.466Z,99851.13
2023-03-03T06:56:37.659Z,99852.22
2023-03-03T06:59:21.151Z,99868.88
2023-03-03T07:01:51.051Z,99870.72
2023-03-03T07:04:21.377Z,99866.38
2023-03-03T07:06:50.782Z,99858.34
2023-03-03T07:09:31.188Z,99839.97
2023-03-03T07:12:11.753Z,99838.75
2023-03-03T07:15:10.395Z,99842.88
2023-03-03T07:17:51.253Z,99853.59
2023-03-03T07:20:31.029Z,99849.28
2023-03-03T07:23:03.095Z,99847.16
2023-03-03T07:25:38.609Z,99843.44
2023-03-03T07:28:34.671Z,99860.13
2023-03-03T07:31:36.874Z,99854.84
2023-03-03T07:34:39.577Z,99849.69
2023-03-03T07:37:23.855Z,99841.16
2023-03-03T07:39:54.227Z,99841.66
2023-03-03T07:42:41.653Z,99834.09
2023-03-03T07:45:32.495Z,99829.94
2023-03-03T07:48:25.457Z,99838.41
2023-03-03T07:50:54.890Z,99842.44
2023-03-03T07:53:31.180Z,99857.03
2023-03-03T07:56:00.974Z,99861.38
2023-03-03T07:58:42.801Z,99852.38
2023-03-03T08:01:31.484Z,99848.81
2023-03-03T08:04:02.147Z,99853.59
2023-03-03T08:06:54.023Z,99854.78
2023-03-03T08:09:53.219Z,99870.69
2023-03-03T08:12:37.911Z,99897.50
2023-03-03T08:15:23.402Z,99891.09
2023-03-03T08:17:58.666Z,99893.72
2023-03-03T08:20:49.758Z,99882.28
2023-03-03T08:23:21.224Z,99872.97
2023-03-03T08:25:53.171Z,99861.81
2023-03-03T08:28:23.541Z,99866.13
2023-03-03T08:31:05.762Z,99872.75
2023-03-03T08:33:47.761Z,99883.84
2023-03-03T08:36:19.120Z,99879.97
2023-03-03T08:38:49.436Z,99875.81
2023-03-03T08:41:19.398Z,99876.47
2023-03-03T08:43:49.674Z,99867.03
2023-03-03T08:46:19.375Z,99860.84
2023-03-03T08:48:49.667Z,99869.09
2023-03-03T08:51:19.481Z,99874.31
2023-03-03T08:53:49.740Z,99889.44
2023-03-03T08:56:19.991Z,99887.31
2023-03-03T08:59:01.608Z,99882.78
2023-03-03T09:01:34.184Z,99885.94
2023-03-03T09:04:03.776Z,99903.16
2023-03-03T09:06:35.234Z,99908.88
2023-03-03T09:09:06.813Z,99906.28
2023-03-03T09:11:39.147Z,99910.03
2023-03-03T09:14:14.463Z,99899.47
2023-03-03T09:16:52.844Z,99905.00
2023-03-03T09:19:37.218Z,99902.63
2023-03-03T09:22:37.694Z,99919.59
2023-03-03T09:25:22.926Z,99921.84
2023-03-03T09:27:55.375Z,99928.50
2023-03-03T09:30:30.127Z,99917.91
2023-03-03T09:33:01.664Z,99907.16
2023-03-03T09:35:41.394Z,99915.25
2023-03-03T09:38:30.774Z,99925.78
2023-03-03T09:41:11.936Z,99928.94
2023-03-03T09:44:13.699Z,99923.59
2023-03-03T09:47:02.054Z,99921.56
2023-03-03T09:49:35.804Z,99909.44
2023-03-03T09:52:15.411Z,99909.69
2023-03-03T09:54:55.603Z,99904.13
2023-03-03T09:57:41.302Z,99892.75
2023-03-03T10:00:22.682Z,99901.81
2023-03-03T10:03:17.144Z,99917.59
2023-03-03T10:06:42.419Z,99909.44
2023-03-03T10:09:37.830Z,99904.56
2023-03-03T10:12:26.788Z,99907.00
2023-03-03T10:15:05.729Z,99909.22
2023-03-03T10:17:53.822Z,99921.25
2023-03-03T10:20:55.901Z,99958.50
2023-03-03T10:23:47.627Z,99971.91
2023-03-03T10:26:44.777Z,99967.41
2023-03-03T10:29:25.965Z,99969.22
2023-03-03T10:32:07.313Z,99981.13
2023-03-03T10:35:06.903Z,99987.19
2023-03-03T10:37:59.975Z,99968.03
2023-03-03T10:40:58.700Z,99968.31
2023-03-03T10:43:41.659Z,99959.94
2023-03-03T10:46:50.724Z,99975.91
2023-03-03T10:49:45.458Z,99983.06
2023-03-03T10:52:34.302Z,99990.00
2023-03-03T10:55:31.844Z,99984.78
2023-03-03T10:58:26.577Z,99971.91
2023-03-03T11:01:29.941Z,99977.06
2023-03-03T11:04:18.777Z,99972.31
2023-03-03T11:07:11.475Z,99945.69
2023-03-03T11:10:06.627Z,99948.09
2023-03-03T11:13:17.150Z,99920.03
2023-03-03T11:16:00.765Z,99904.53
2023-03-03T11:19:00.913Z,99902.84
2023-03-03T11:22:10.086Z,99905.38
2023-03-03T11:24:54.510Z,99902.13
2023-03-03T11:27:40.218Z,99916.84
2023-03-03T11:30:13.221Z,99938.59
2023-03-03T11:33:22.900Z,99981.50
2023-03-03T11:36:13.254Z,100008.06
2023-03-03T11:38:51.099Z,99997.31
2023-03-03T11:41:38.867Z,99987.72
2023-03-03T11:44:46.825Z,99992.88
2023-03-03T11:47:49.716Z,99995.59
2023-03-03T11:50:51.403Z,99996.94
2023-03-03T11:53:30.205Z,100010.09
2023-03-03T11:56:13.048Z,100002.94
2023-03-03T11:59:39.467Z,99983.38
2023-03-03T12:02:39.708Z,99978.09
2023-03-03T12:05:34.445Z,99996.59
2023-03-03T12:08:24.240Z,99997.50
2023-03-03T12:11:09.642Z,100010.34
2023-03-03T12:14:19.251Z,100014.91
2023-03-03T12:17:09.365Z,100026.44
2023-03-03T12:20:06.920Z,100030.97
2023-03-03T12:23:06.885Z,100036.41
2023-03-03T12:25:43.337Z,100061.88
2023-03-03T12:28:29.643Z,100084.06
2023-03-03T12:31:11.920Z,100101.47
2023-03-03T12:33:55.461Z,100087.13
2023-03-03T12:36:48.260Z,100108.16
2023-03-03T12:39:35.139Z,100115.97
2023-03-03T12:42:20.346Z,100116.00
2023-03-03T12:45:21.487Z,100125.03
2023-03-03T12:48:15.840Z,100121.56
2023-03-03T12:51:07.376Z,100105.28
2023-03-03T12:54:09.759Z,100104.56
2023-03-03T12:56:47.954Z,100110.44
2023-03-03T12:59:21.419Z,100127.53
2023-03-03T13:02:29.126Z,100145.50
2023-03-03T13:05:39.389Z,100137.38
2023-03-03T13:08:19.056Z,100158.41
2023-03-03T13:11:02.241Z,100168.66
2023-03-03T13:13:38.624Z,100173.81
2023-03-03T13:16:17.351Z,100178.44
2023-03-03T13:19:01.917Z,100189.13
2023-03-03T13:21:53.611Z,100179.00
2023-03-03T13:24:35.222Z,100174.56
2023-03-03T13:27:19.190Z,100179.09
2023-03-03T13:30:18.011Z,100201.31
2023-03-03T13:33:05.371Z,100213.19
2023-03-03T13:36:01.168Z,100208.88
2023-03-03T13:39:00.223Z,100213.63
2023-03-03T13:41:43.168Z,100211.00
2023-03-03T13:44:26.847Z,100217.81
2023-03-03T13:47:14.983Z,100229.63
2023-03-03T13:49:47.980Z,100239.84
2023-03-03T13:52:35.014Z,100259.66
2023-03-03T13:55:15.845Z,100266.63
2023-03-03T13:58:04.431Z,100269.31
2023-03-03T14:00:54.504Z,100260.28
2023-03-03T14:03:47.420Z,100261.03
2023-03-03T14:06:22.927Z,100250.31
2023-03-03T14:09:10.968Z,100247.94
2023-03-03T14:11:50.956Z,100270.63
2023-03-03T14:14:49.629Z,100260.28
2023-03-03T14:17:54.762Z,100270.16
2023-03-03T14:20:32.174Z,100266.34
2023-03-03T14:23:22.522Z,100254.00
2023-03-03T14:26:01.079Z,100251.88
2023-03-03T14:29:05.088Z,100258.91
2023-03-03T14:31:45.338Z,100281.66
2023-03-03T14:34:41.273Z,100283.28
2023-03-03T14:37:24.167Z,100317.22
2023-03-03T14:40:23.274Z,100313.38
2023-03-03T14:42:54.176Z,100331.63
2023-03-03T14:45:34.262Z,100332.44
2023-03-03T14:48:32.823Z,100330.81
2023-03-03T14:51:25.114Z,100311.69
2023-03-03T14:53:59.108Z,100301.56
2023-03-03T14:56:40.036Z,100284.94
2023-03-03T14:59:21.352Z,100270.91
2023-03-03T15:02:38.237Z,100261.13
2023-03-03T15:05:23.496Z,100257.88
2023-03-03T15:08:09.960Z,100240.06
2023-03-03T15:10:50.535Z,100254.75
2023-03-03T15:13:36.273Z,100266.63
2023-03-03T15:16:23.386Z,100250.50
2023-03-03T15:19:34.019Z,100231.47
2023-03-03T15:22:34.215Z,100225.66
2023-03-03T15:25:44.021Z,100217.69
2023-03-03T15:28:37.987Z,100208.38
2023-03-03T15:31:15.954Z,100189.25
2023-03-03T15:34:16.320Z,100189.81
2023-03-03T15:37:23.661Z,100180.00
2023-03-03T15:40:01.317Z,100148.09
2023-03-03T15:42:45.377Z,100142.03
2023-03-03T15:45:46.718Z,100129.44
2023-03-03T15:48:41.139Z,100141.38
2023-03-03T15:51:30.341Z,100132.53
2023-03-03T15:54:26.837Z,100122.94
2023-03-03T15:57:14.399Z,100135.13
2023-03-03T16:00:12.001Z,100134.84
2023-03-03T16:02:53.549Z,100131.31
2023-03-03T16:05:39.830Z,100125.41
2023-03-03T16:08:43.648Z,100116.00
2023-03-03T16:11:17.543Z,100097.84
2023-03-03T16:13:52.013Z,100068.88
2023-03-03T16:16:54.747Z,100076.06
2023-03-03T16:19:49.948Z,100075.13
2023-03-03T16:22:32.389Z,100065.72
2023-03-03T16:25:12.065Z,100074.09
2023-03-03T16:27:53.538Z,100059.72
2023-03-03T16:30:29.006Z,100045.59
2023-03-03T16:33:19.356Z,100029.53
2023-03-03T16:36:05.516Z,100025.09
2023-03-03T16:38:45.805Z,100002.28
2023-03-03T16:41:54.575Z,100002.03
2023-03-03T16:44:41.470Z,100006.22
2023-03-03T16:47:33.131Z,100002.75
2023-03-03T16:50:26.826Z,100000.38
2023-03-03T16:53:25.591Z,100004.50
2023-03-03T16:56:08.058Z,100002.66
2023-03-03T16:59:35.519Z,100006.75
2023-03-03T17:02:45.923Z,100010.81
2023-03-03T17:06:07.142Z,99980.06
2023-03-03T17:09:03.625Z,99958.63
2023-03-03T17:11:47.641Z,99986.00
2023-03-03T17:14:43.915Z,99964.59
2023-03-03T17:17:39.576Z,99959.09
2023-03-03T17:20:38.085Z,99944.28
2023-03-03T17:23:23.351Z,99925.66
2023-03-03T17:26:03.193Z,99901.50
2023-03-03T17:28:53.442Z,99898.94
2023-03-03T17:31:25.272Z,99911.38
2023-03-03T17:34:05.536Z,99930.53
2023-03-03T17:36:53.630Z,99922.59
2023-03-03T17:40:01.631Z,99929.91
2023-03-03T17:42:49.040Z,99924.47
2023-03-03T17:45:21.722Z,99912.69
2023-03-03T17:48:19.722Z,99906.78
2023-03-03T17:51:12.294Z,99887.00
2023-03-03T17:54:20.158Z,99889.66
2023-03-03T17:57:23.085Z,99915.34
2023-03-03T18:00:15.215Z,99922.47
2023-03-03T18:03:06.112Z,99906.22
2023-03-03T18:05:47.401Z,99901.16
2023-03-03T18:08:29.220Z,99890.47
2023-03-03T18:11:15.965Z,99878.84
2023-03-03T18:14:10.377Z,99893.03
2023-03-03T18:17:12.969Z,99941.97
2023-03-03T18:20:01.779Z,99947.72
2023-03-03T18:22:51.943Z,99937.44
2023-03-03T18:25:32.815Z,99914.97
2023-03-03T18:28:46.507Z,99906.22
2023-03-03T18:31:35.596Z,99908.63
2023-03-03T18:34:38.111Z,99902.38
2023-03-03T18:37:41.841Z,99872.22
2023-03-03T18:40:38.087Z,99872.66
2023-03-03T18:43:46.421Z,99857.69
2023-03-03T18:46:26.998Z,99843.56
2023-03-03T18:49:09.348Z,99850.56
2023-03-03T18:51:41.165Z,99869.56
2023-03-03T18:54:23.037Z,99865.38
2023-03-03T18:57:06.518Z,99855.06
2023-03-03T18:59:55.493Z,99821.00
2023-03-03T19:02:44.878Z,99819.72
2023-03-03T19:05:17.368Z,99818.34
2023-03-03T19:08:31.465Z,99811.50
2023-03-03T19:11:05.273Z,99809.78
2023-03-03T19:13:35.275Z,99815.13
2023-03-03T19:16:37.997Z,99808.59
2023-03-03T19:19:15.121Z,99801.13
2023-03-03T19:22:11.500Z,99798.59
2023-03-03T19:25:03.593Z,99800.50
2023-03-03T19:27:47.365Z,99801.81
2023-03-03T19:33:43.077Z,99791.47
2023-03-03T19:36:19.903Z,99785.34
2023-03-03T19:39:19.148Z,99772.97
2023-03-03T19:42:29.423Z,99776.47
2023-03-03T19:45:33.444Z,99766.69
2023-03-03T19:48:16.994Z,99773.06
2023-03-03T19:51:06.998Z,99772.16
2023-03-03T19:53:49.590Z,99772.75
2023-03-03T19:56:31.799Z,99750.78
2023-03-03T19:59:15.791Z,99741.47
2023-03-03T20:02:23.706Z,99732.38
2023-03-03T20:05:07.299Z,99727.47
2023-03-03T20:07:58.769Z,99716.44
2023-03-03T20:10:43.009Z,99704.75
2023-03-03T20:13:18.313Z,99693.44
2023-03-03T20:15:59.167Z,99666.69
2023-03-03T20:18:37.817Z,99659.34
2023-03-03T20:21:44.245Z,99635.47
2023-03-03T20:24:52.195Z,99613.16
2023-03-03T20:27:35.570Z,99607.44
2023-03-03T20:30:47.357Z,99609.38
2023-03-03T20:33:19.409Z,99588.53
2023-03-03T20:36:25.313Z,99588.75
2023-03-03T20:39:18.637Z,99580.75
2023-03-03T20:42:25.851Z,99566.44
2023-03-03T20:45:15.928Z,99549.16
2023-03-03T20:48:23.361Z,99551.88
2023-03-03T20:51:15.544Z,99543.41
2023-03-03T20:53:51.896Z,99524.44
2023-03-03T20:56:44.001Z,99516.59
2023-03-03T20:59:40.290Z,99507.94
2023-03-03T21:02:35.121Z,99493.91
2023-03-03T21:05:33.330Z,99472.53
2023-03-03T21:08:08.182Z,99471.38
2023-03-03T21:11:06.640Z,99459.28
2023-03-03T21:15:26.382Z,99449.00
2023-03-03T21:17:41.976Z,99440.25
2023-03-03T21:20:35.957Z,99440.84
2023-03-03T21:23:34.356Z,99423.56
2023-03-03T21:31:47.075Z,99396.91
2023-03-03T21:34:27.326Z,99384.19
2023-03-03T21:37:00.386Z,99359.69
2023-03-03T21:39:39.393Z,99330.97
2023-03-03T21:42:13.943Z,99293.19
2023-03-03T21:44:45.603Z,99304.88
2023-03-03T21:47:18.874Z,99339.03
2023-03-03T21:49:50.109Z,99329.84
2023-03-03T21:52:21.507Z,99326.97
2023-03-03T21:54:53.060Z,99339.69
2023-03-03T21:57:22.454Z,99321.03
2023-03-03T21:59:51.438Z,99327.44
2023-03-03T22:02:24.172Z,99312.59
2023-03-03T22:05:03.805Z,99298.88
2023-03-03T22:07:33.567Z,99309.56
2023-03-03T22:10:02.400Z,99306.34
2023-03-03T22:12:31.211Z,99295.25
2023-03-03T22:14:59.981Z,99283.44
2023-03-03T22:17:31.769Z,99283.78
2023-03-03T22:20:01.200Z,99257.84
2023-03-03T22:22:34.445Z,99255.50
2023-03-03T22:25:04.497Z,99215.78
2023-03-03T22:27:35.187Z,99192.69
2023-03-03T22:30:15.994Z,99205.00
2023-03-03T22:33:29.892Z,99241.38
2023-03-03T22:38:59.336Z,99242.97
2023-03-03T22:41:29.285Z,99260.19
2023-03-03T22:43:58.467Z,99272.63
2023-03-03T22:46:27.319Z,99295.13
2023-03-03T22:48:56.620Z,99321.41
2023-03-03T22:51:26.832Z,99324.00
2023-03-03T22:53:56.887Z,99343.28
2023-03-03T22:56:26.593Z,99330.88
2023-03-03T22:58:55.452Z,99284.69
2023-03-03T23:01:24.664Z,99275.75
2023-03-03T23:03:53.337Z,99249.16
2023-03-03T23:06:22.551Z,99227.13
2023-03-03T23:08:51.093Z,99199.34
2023-03-03T23:11:19.438Z,99204.88
2023-03-03T23:13:48.200Z,99209.06
2023-03-03T23:16:20.295Z,99207.00
2023-03-03T23:18:49.220Z,99197.84
2023-03-03T23:21:18.415Z,99175.03
2023-03-03T23:23:47.734Z,99170.31
2023-03-03T23:26:17.230Z,99158.97
2023-03-03T23:28:45.543Z,99130.78
2023-03-03T23:31:14.515Z,99110.00
2023-03-03T23:33:47.462Z,99056.66
2023-03-03T23:36:17.309Z,99025.09
2023-03-03T23:38:46.149Z,98980.44
2023-03-03T23:41:14.673Z,98985.41
2023-03-03T23:43:43.022Z,98970.66
2023-03-03T23:46:11.308Z,98935.16
2023-03-03T23:48:41.088Z,98903.34
2023-03-03T23:51:10.376Z,98906.03
2023-03-03T23:53:39.047Z,98880.38
2023-03-03T23:56:09.018Z,98866.81
2023-03-03T23:58:38.866Z,98841.97
